createdAt,value
2024-05-09T00:02:14.948Z,99869.13
2024-05-09T00:05:20.067Z,99864.81
2024-05-09T00:08:25.559Z,99865.50
2024-05-09T00:11:30.663Z,99870.56
2024-05-09T00:14:38.332Z,99869.31
2024-05-09T00:17:43.856Z,99873.31
2024-05-09T00:20:49.025Z,99864.84
2024-05-09T00:23:53.989Z,99867.53
2024-05-09T00:26:59.259Z,99871.34
2024-05-09T00:30:07.507Z,99871.28
2024-05-09T00:33:12.615Z,99877.28
2024-05-09T00:36:17.681Z,99877.41
2024-05-09T00:39:22.600Z,99875.81
2024-05-09T00:42:27.680Z,99870.69
2024-05-09T00:45:36.388Z,99862.34
2024-05-09T00:48:41.558Z,99860.44
2024-05-09T00:51:46.622Z,99856.22
2024-05-09T00:54:51.751Z,99862.41
2024-05-09T00:57:57.763Z,99864.69
2024-05-09T01:01:06.095Z,99873.28
2024-05-09T01:04:11.663Z,99870.72
2024-05-09T01:07:16.948Z,99866.88
2024-05-09T01:10:28.024Z,99867.59
2024-05-09T01:13:38.871Z,99869.03
2024-05-09T01:16:46.631Z,99860.84
2024-05-09T01:19:51.618Z,99863.47
2024-05-09T01:22:57.239Z,99857.97
2024-05-09T01:26:04.855Z,99855.91
2024-05-09T01:29:09.918Z,99850.31
2024-05-09T01:32:15.210Z,99853.75
2024-05-09T01:35:23.650Z,99860.72
2024-05-09T01:38:28.925Z,99862.75
2024-05-09T01:41:36.570Z,99855.16
2024-05-09T01:44:41.521Z,99860.34
2024-05-09T01:47:46.701Z,99860.72
2024-05-09T01:50:51.919Z,99857.81
2024-05-09T01:53:59.184Z,99864.91
2024-05-09T01:57:07.170Z,99855.50
2024-05-09T02:00:15.680Z,99858.75
2024-05-09T02:03:24.261Z,99862.47
2024-05-09T02:06:29.258Z,99865.03
2024-05-09T02:09:34.265Z,99866.63
2024-05-09T02:12:42.090Z,99857.44
2024-05-09T02:15:47.384Z,99858.97
2024-05-09T02:18:52.651Z,99859.59
2024-05-09T02:21:57.611Z,99850.16
2024-05-09T02:25:02.528Z,99856.28
2024-05-09T02:28:10.617Z,99856.66
2024-05-09T02:31:16.039Z,99858.53
2024-05-09T02:34:21.159Z,99854.47
2024-05-09T02:37:26.085Z,99843.56
2024-05-09T02:40:36.533Z,99857.06
2024-05-09T02:43:46.359Z,99846.81
2024-05-09T02:46:52.780Z,99840.38
2024-05-09T02:49:55.330Z,99851.84
2024-05-09T02:53:00.835Z,99864.91
2024-05-09T02:56:03.523Z,99854.16
2024-05-09T02:59:11.579Z,99863.69
2024-05-09T03:02:14.037Z,99860.75
2024-05-09T03:05:19.161Z,99854.09
2024-05-09T03:08:21.601Z,99859.22
2024-05-09T03:11:27.604Z,99857.78
2024-05-09T03:14:32.684Z,99855.72
2024-05-09T03:17:37.824Z,99857.06
2024-05-09T03:20:40.557Z,99856.97
2024-05-09T03:23:46.566Z,99856.78
2024-05-09T03:26:49.007Z,99864.38
2024-05-09T03:29:57.435Z,99865.31
2024-05-09T03:32:59.916Z,99862.69
2024-05-09T03:36:09.790Z,99860.72
2024-05-09T03:39:16.042Z,99859.16
2024-05-09T03:42:21.055Z,99865.22
2024-05-09T03:45:28.715Z,99870.63
2024-05-09T03:51:39.853Z,99863.91
2024-05-09T03:54:45.750Z,99860.59
2024-05-09T03:57:50.793Z,99858.66
2024-05-09T04:00:58.547Z,99862.66
2024-05-09T04:04:01.016Z,99864.75
2024-05-09T04:07:06.247Z,99860.75
2024-05-09T04:10:16.784Z,99865.91
2024-05-09T04:13:25.759Z,99868.47
2024-05-09T04:16:30.940Z,99872.19
2024-05-09T04:19:36.038Z,99871.84
2024-05-09T04:22:38.496Z,99868.75
2024-05-09T04:25:47.034Z,99870.16
2024-05-09T04:28:52.375Z,99875.72
2024-05-09T04:32:01.786Z,99878.50
2024-05-09T04:35:05.351Z,99881.22
2024-05-09T04:38:11.772Z,99887.13
2024-05-09T04:41:14.286Z,99888.75
2024-05-09T04:44:19.457Z,99891.59
2024-05-09T04:47:27.282Z,99890.94
2024-05-09T04:50:36.303Z,99892.16
2024-05-09T04:53:43.978Z,99897.94
2024-05-09T04:56:46.597Z,99894.81
2024-05-09T04:59:51.943Z,99900.22
2024-05-09T05:02:57.144Z,99898.94
2024-05-09T05:06:02.655Z,99894.81
2024-05-09T05:09:05.308Z,99898.06
2024-05-09T05:12:31.114Z,99901.47
2024-05-09T05:15:33.580Z,99894.44
2024-05-09T05:18:41.477Z,99894.69
2024-05-09T05:21:46.954Z,99897.25
2024-05-09T05:24:49.291Z,99896.41
2024-05-09T05:27:54.692Z,99893.78
2024-05-09T05:30:57.181Z,99891.81
2024-05-09T05:34:04.895Z,99891.72
2024-05-09T05:37:07.448Z,99893.03
2024-05-09T05:40:20.688Z,99898.16
2024-05-09T05:43:30.045Z,99888.78
2024-05-09T05:46:35.115Z,99887.53
2024-05-09T05:49:40.354Z,99892.47
2024-05-09T05:52:45.418Z,99888.97
2024-05-09T05:55:47.761Z,99887.59
2024-05-09T05:58:55.794Z,99893.56
2024-05-09T06:01:58.309Z,99893.78
2024-05-09T06:05:06.508Z,99889.75
2024-05-09T06:08:11.859Z,99893.44
2024-05-09T06:11:14.931Z,99897.06
2024-05-09T06:14:20.173Z,99891.13
2024-05-09T06:17:22.708Z,99898.22
2024-05-09T06:20:35.924Z,99897.94
2024-05-09T06:23:45.874Z,99902.94
2024-05-09T06:26:51.025Z,99899.47
2024-05-09T06:29:53.475Z,99898.91
2024-05-09T06:32:58.758Z,99899.44
2024-05-09T06:36:04.224Z,99903.13
2024-05-09T06:39:10.281Z,99903.47
2024-05-09T06:42:12.633Z,99898.75
2024-05-09T06:45:18.486Z,99895.56
2024-05-09T06:48:22.357Z,99900.47
2024-05-09T06:51:30.379Z,99898.91
2024-05-09T06:54:32.857Z,99905.25
2024-05-09T06:57:40.582Z,99903.53
2024-05-09T07:00:44.940Z,99900.16
2024-05-09T07:03:50.034Z,99908.06
2024-05-09T07:06:57.688Z,99914.41
2024-05-09T07:10:00.034Z,99906.81
2024-05-09T07:13:05.371Z,99905.47
2024-05-09T07:16:07.827Z,99902.09
2024-05-09T07:19:13.066Z,99901.31
2024-05-09T07:22:20.902Z,99885.97
2024-05-09T07:25:23.544Z,99894.69
2024-05-09T07:28:28.568Z,99890.66
2024-05-09T07:31:31.716Z,99901.50
2024-05-09T07:34:37.039Z,99892.44
2024-05-09T07:37:42.336Z,99895.09
2024-05-09T07:40:47.371Z,99895.44
2024-05-09T07:43:52.454Z,99897.06
2024-05-09T07:48:13.937Z,99900.63
2024-05-09T07:53:39.892Z,99897.28
2024-05-09T07:56:49.729Z,99894.97
2024-05-09T07:59:54.981Z,99900.34
2024-05-09T08:03:00.086Z,99886.16
2024-05-09T08:06:02.407Z,99890.84
2024-05-09T08:09:13.874Z,99888.38
2024-05-09T08:12:24.210Z,99884.25
2024-05-09T08:15:26.729Z,99889.44
2024-05-09T08:18:31.992Z,99884.31
2024-05-09T08:21:34.553Z,99886.56
2024-05-09T08:24:42.304Z,99885.75
2024-05-09T08:27:44.811Z,99888.31
2024-05-09T08:30:50.088Z,99886.53
2024-05-09T08:33:52.789Z,99887.22
2024-05-09T08:37:03.720Z,99882.69
2024-05-09T08:40:24.080Z,99876.59
2024-05-09T08:43:38.151Z,99881.97
2024-05-09T08:46:44.452Z,99883.06
2024-05-09T08:49:58.431Z,99888.88
2024-05-09T08:53:03.525Z,99887.34
2024-05-09T08:56:14.176Z,99890.84
2024-05-09T08:59:24.055Z,99890.16
2024-05-09T09:02:27.871Z,99889.91
2024-05-09T09:05:34.440Z,99895.00
2024-05-09T09:08:39.519Z,99887.00
2024-05-09T09:11:47.441Z,99898.13
2024-05-09T09:14:52.586Z,99888.25
2024-05-09T09:17:59.724Z,99881.22
2024-05-09T09:21:05.198Z,99887.25
2024-05-09T09:24:10.021Z,99893.31
2024-05-09T09:27:19.420Z,99893.88
2024-05-09T09:30:34.034Z,99895.72
2024-05-09T09:33:45.082Z,99890.00
2024-05-09T09:36:49.172Z,99879.13
2024-05-09T09:39:54.781Z,99882.41
2024-05-09T09:43:01.683Z,99876.81
2024-05-09T09:46:12.520Z,99874.56
2024-05-09T09:49:19.653Z,99880.88
2024-05-09T09:52:25.413Z,99877.50
2024-05-09T09:55:28.754Z,99876.78
2024-05-09T09:58:39.105Z,99882.41
2024-05-09T10:01:44.650Z,99872.28
2024-05-09T10:04:47.364Z,99874.84
2024-05-09T10:07:53.833Z,99873.28
2024-05-09T10:10:57.419Z,99868.50
2024-05-09T10:14:06.020Z,99868.22
2024-05-09T10:17:08.435Z,99870.69
2024-05-09T10:20:21.367Z,99866.84
2024-05-09T10:23:32.418Z,99859.34
2024-05-09T10:26:36.489Z,99856.72
2024-05-09T10:29:54.940Z,99866.16
2024-05-09T10:32:57.455Z,99864.78
2024-05-09T10:36:05.975Z,99854.59
2024-05-09T10:39:13.641Z,99853.56
2024-05-09T10:42:17.041Z,99851.25
2024-05-09T10:45:24.935Z,99851.41
2024-05-09T10:48:27.596Z,99849.94
2024-05-09T10:51:33.008Z,99844.59
2024-05-09T10:54:38.815Z,99843.06
2024-05-09T10:57:44.147Z,99837.06
2024-05-09T11:00:50.375Z,99837.31
2024-05-09T11:03:55.623Z,99837.78
2024-05-09T11:07:04.588Z,99846.50
2024-05-09T11:10:12.359Z,99836.81
2024-05-09T11:13:17.775Z,99829.72
2024-05-09T11:16:22.918Z,99838.56
2024-05-09T11:19:33.311Z,99832.44
2024-05-09T11:22:35.842Z,99833.22
2024-05-09T11:25:41.054Z,99824.66
2024-05-09T11:28:45.343Z,99825.16
2024-05-09T11:31:53.573Z,99823.88
2024-05-09T11:34:55.950Z,99824.53
2024-05-09T11:38:01.160Z,99819.63
2024-05-09T11:41:07.472Z,99816.66
2024-05-09T11:44:13.282Z,99816.84
2024-05-09T11:47:21.934Z,99822.97
2024-05-09T11:50:29.957Z,99818.28
2024-05-09T11:53:39.727Z,99818.47
2024-05-09T11:56:42.204Z,99814.09
2024-05-09T11:59:47.203Z,99818.59
2024-05-09T12:02:56.324Z,99822.22
2024-05-09T12:05:59.012Z,99823.94
2024-05-09T12:09:04.389Z,99816.50
2024-05-09T12:12:06.969Z,99823.16
2024-05-09T12:15:12.090Z,99815.06
2024-05-09T12:18:17.210Z,99819.72
2024-05-09T12:21:22.138Z,99806.47
2024-05-09T12:24:25.312Z,99799.16
2024-05-09T12:27:30.670Z,99795.91
2024-05-09T12:30:40.209Z,99797.13
2024-05-09T12:33:49.377Z,99801.63
2024-05-09T12:36:52.070Z,99808.00
2024-05-09T12:39:57.347Z,99802.16
2024-05-09T12:43:02.680Z,99795.19
2024-05-09T12:46:08.378Z,99800.94
2024-05-09T12:49:16.389Z,99783.72
2024-05-09T12:52:22.727Z,99781.22
2024-05-09T12:55:25.186Z,99780.84
2024-05-09T12:58:30.177Z,99778.09
2024-05-09T13:01:35.404Z,99774.22
2024-05-09T13:04:40.565Z,99769.72
2024-05-09T13:07:45.618Z,99765.41
2024-05-09T13:10:48.619Z,99771.28
2024-05-09T13:13:53.712Z,99762.63
2024-05-09T13:16:56.221Z,99764.28
2024-05-09T13:20:05.588Z,99755.25
2024-05-09T13:23:10.714Z,99761.50
2024-05-09T13:26:13.184Z,99762.88
2024-05-09T13:29:18.491Z,99759.28
2024-05-09T13:32:20.854Z,99756.75
2024-05-09T13:35:28.515Z,99756.47
2024-05-09T13:38:31.141Z,99743.56
2024-05-09T13:41:36.119Z,99746.59
2024-05-09T13:44:38.689Z,99742.03
2024-05-09T13:47:44.162Z,99739.25
2024-05-09T13:50:52.862Z,99746.66
2024-05-09T13:53:59.442Z,99743.25
2024-05-09T13:57:01.831Z,99742.00
2024-05-09T14:00:22.307Z,99740.66
2024-05-09T14:03:33.860Z,99743.13
2024-05-09T14:06:41.775Z,99738.00
2024-05-09T14:09:47.285Z,99725.28
2024-05-09T14:12:55.053Z,99724.84
2024-05-09T14:15:57.942Z,99723.75
2024-05-09T14:19:04.992Z,99721.88
2024-05-09T14:22:12.920Z,99714.00
2024-05-09T14:25:15.518Z,99715.41
2024-05-09T14:28:21.315Z,99713.09
2024-05-09T14:31:26.925Z,99718.44
2024-05-09T14:34:29.800Z,99708.31
2024-05-09T14:37:39.724Z,99706.00
2024-05-09T14:40:44.053Z,99706.66
2024-05-09T14:44:27.696Z,99696.09
2024-05-09T14:48:06.559Z,99696.16
2024-05-09T14:51:42.460Z,99683.19
2024-05-09T14:55:03.994Z,99686.22
2024-05-09T14:58:10.195Z,99690.22
2024-05-09T15:01:15.754Z,99685.38
2024-05-09T15:04:18.530Z,99682.59
2024-05-09T15:07:23.968Z,99677.03
2024-05-09T15:10:35.560Z,99673.44
2024-05-09T15:13:42.038Z,99667.66
2024-05-09T15:16:44.705Z,99673.94
2024-05-09T15:19:50.202Z,99667.00
2024-05-09T15:22:52.803Z,99659.97
2024-05-09T15:26:00.794Z,99658.78
2024-05-09T15:29:03.554Z,99655.13
2024-05-09T15:32:09.319Z,99659.88
2024-05-09T15:35:14.606Z,99649.88
2024-05-09T15:38:20.907Z,99650.53
2024-05-09T15:41:29.159Z,99653.09
2024-05-09T15:44:35.408Z,99644.97
2024-05-09T15:47:40.979Z,99646.00
2024-05-09T15:50:43.964Z,99642.44
2024-05-09T15:53:50.816Z,99641.81
2024-05-09T15:56:56.336Z,99638.69
2024-05-09T16:00:02.029Z,99640.31
2024-05-09T16:03:23.686Z,99631.44
2024-05-09T16:06:29.064Z,99636.00
2024-05-09T16:09:33.084Z,99633.63
2024-05-09T16:12:44.475Z,99633.69
2024-05-09T16:15:47.606Z,99629.63
2024-05-09T16:18:56.279Z,99628.78
2024-05-09T16:22:00.714Z,99622.72
2024-05-09T16:25:06.528Z,99623.53
2024-05-09T16:28:17.612Z,99619.66
2024-05-09T16:31:20.487Z,99623.88
2024-05-09T16:34:26.215Z,99622.75
2024-05-09T16:37:31.893Z,99620.38
2024-05-09T16:40:38.961Z,99624.78
2024-05-09T16:43:49.232Z,99633.19
2024-05-09T16:46:51.899Z,99628.31
2024-05-09T16:49:57.295Z,99625.19
2024-05-09T16:53:00.394Z,99625.19
2024-05-09T16:56:06.762Z,99627.16
2024-05-09T16:59:14.900Z,99625.78
2024-05-09T17:02:18.535Z,99620.84
2024-05-09T17:05:24.674Z,99623.63
2024-05-09T17:08:27.650Z,99632.19
2024-05-09T17:11:36.274Z,99628.06
2024-05-09T17:14:44.586Z,99627.88
2024-05-09T17:17:51.725Z,99624.16
2024-05-09T17:20:56.925Z,99624.78
2024-05-09T17:23:59.595Z,99625.91
2024-05-09T17:27:04.997Z,99624.75
2024-05-09T17:30:21.163Z,99630.13
2024-05-09T17:33:31.607Z,99625.75
2024-05-09T17:36:36.900Z,99627.28
2024-05-09T17:39:39.922Z,99624.66
2024-05-09T17:42:45.298Z,99626.09
2024-05-09T17:45:53.585Z,99631.88
2024-05-09T17:48:58.779Z,99619.63
2024-05-09T17:52:05.632Z,99623.38
2024-05-09T17:55:08.548Z,99626.41
2024-05-09T17:58:15.763Z,99617.66
2024-05-09T18:01:24.360Z,99620.06
2024-05-09T18:04:29.069Z,99621.03
2024-05-09T18:07:36.530Z,99617.56
2024-05-09T18:10:44.877Z,99626.41
2024-05-09T18:13:47.798Z,99619.44
2024-05-09T18:16:57.046Z,99627.66
2024-05-09T18:20:02.070Z,99623.25
2024-05-09T18:23:18.779Z,99627.88
2024-05-09T18:26:29.976Z,99632.00
2024-05-09T18:29:32.569Z,99632.03
2024-05-09T18:32:40.582Z,99627.88
2024-05-09T18:35:46.793Z,99634.31
2024-05-09T18:38:50.258Z,99642.63
2024-05-09T18:41:55.930Z,99643.97
2024-05-09T18:44:58.852Z,99649.31
2024-05-09T18:48:08.179Z,99648.47
2024-05-09T18:51:14.966Z,99652.34
2024-05-09T18:54:20.525Z,99653.06
2024-05-09T18:57:25.817Z,99672.47
2024-05-09T19:00:34.761Z,99662.59
2024-05-09T19:03:46.380Z,99666.72
2024-05-09T19:06:49.602Z,99667.34
2024-05-09T19:09:54.971Z,99676.53
2024-05-09T19:12:57.921Z,99675.25
2024-05-09T19:16:03.586Z,99674.91
2024-05-09T19:19:10.153Z,99682.94
2024-05-09T19:22:15.495Z,99691.06
2024-05-09T19:25:17.978Z,99682.03
2024-05-09T19:28:23.276Z,99682.59
2024-05-09T19:31:29.075Z,99682.03
2024-05-09T19:34:34.490Z,99680.19
2024-05-09T19:37:41.447Z,99677.75
2024-05-09T19:40:48.951Z,99686.06
2024-05-09T19:43:54.570Z,99687.53
2024-05-09T19:46:57.790Z,99687.88
2024-05-09T19:50:10.781Z,99681.97
2024-05-09T19:53:22.446Z,99684.13
2024-05-09T19:56:25.067Z,99687.31
2024-05-09T19:59:30.353Z,99685.19
2024-05-09T20:02:35.720Z,99690.78
2024-05-09T20:05:42.871Z,99687.53
2024-05-09T20:08:48.297Z,99686.47
2024-05-09T20:11:50.824Z,99683.47
2024-05-09T20:14:56.049Z,99683.53
2024-05-09T20:18:01.346Z,99682.69
2024-05-09T20:21:25.351Z,99683.59
2024-05-09T20:24:33.943Z,99675.78
2024-05-09T20:27:50.468Z,99676.22
2024-05-09T20:30:55.998Z,99681.16
2024-05-09T20:33:58.554Z,99678.09
2024-05-09T20:37:06.837Z,99679.56
2024-05-09T20:40:18.158Z,99679.31
2024-05-09T20:43:30.546Z,99681.16
2024-05-09T20:46:33.479Z,99680.88
2024-05-09T20:49:39.057Z,99666.78
2024-05-09T20:52:44.696Z,99681.28
2024-05-09T20:55:51.722Z,99668.78
2024-05-09T20:58:55.343Z,99667.34
2024-05-09T21:02:00.904Z,99670.00
2024-05-09T21:05:04.357Z,99668.09
2024-05-09T21:08:12.607Z,99664.59
2024-05-09T21:11:23.143Z,99670.66
2024-05-09T21:14:29.089Z,99669.75
2024-05-09T21:17:32.589Z,99667.53
2024-05-09T21:20:38.180Z,99665.06
2024-05-09T21:23:43.592Z,99671.97
2024-05-09T21:26:49.390Z,99667.84
2024-05-09T21:29:53.541Z,99663.03
2024-05-09T21:33:05.141Z,99662.69
2024-05-09T21:36:12.505Z,99662.41
2024-05-09T21:39:20.303Z,99659.75
2024-05-09T21:42:25.702Z,99669.00
2024-05-09T21:45:28.558Z,99665.00
2024-05-09T21:48:33.917Z,99671.25
2024-05-09T21:51:37.212Z,99665.38
2024-05-09T21:54:45.377Z,99667.31
2024-05-09T21:57:47.958Z,99665.78
2024-05-09T22:00:53.367Z,99665.63
2024-05-09T22:03:56.516Z,99666.97
2024-05-09T22:07:01.866Z,99665.94
2024-05-09T22:10:12.880Z,99665.25
2024-05-09T22:13:24.961Z,99665.41
2024-05-09T22:16:27.552Z,99670.28
2024-05-09T22:19:35.257Z,99659.41
2024-05-09T22:22:37.870Z,99663.19
2024-05-09T22:25:45.644Z,99664.47
2024-05-09T22:28:48.362Z,99659.88
2024-05-09T22:31:53.579Z,99662.59
2024-05-09T22:34:56.673Z,99668.34
2024-05-09T22:38:02.200Z,99659.91
2024-05-09T22:41:09.355Z,99657.88
2024-05-09T22:44:14.566Z,99650.09
2024-05-09T22:47:17.068Z,99652.47
2024-05-09T22:50:32.780Z,99657.53
2024-05-09T22:53:38.961Z,99658.31
2024-05-09T22:56:46.851Z,99660.63
2024-05-09T22:59:49.353Z,99655.56
2024-05-09T23:02:54.635Z,99665.25
2024-05-09T23:06:00.063Z,99649.75
2024-05-09T23:09:02.672Z,99655.72
2024-05-09T23:12:10.723Z,99648.53
2024-05-09T23:15:13.387Z,99647.69
2024-05-09T23:18:18.762Z,99652.81
2024-05-09T23:21:24.233Z,99650.28
2024-05-09T23:24:26.831Z,99648.84
2024-05-09T23:27:34.714Z,99635.56
2024-05-09T23:30:40.110Z,99642.59
2024-05-09T23:33:48.686Z,99636.13
2024-05-09T23:36:51.524Z,99632.09
2024-05-09T23:39:56.724Z,99632.13
2024-05-09T23:43:02.038Z,99630.22
2024-05-09T23:46:07.573Z,99628.75
2024-05-09T23:49:11.411Z,99624.28
2024-05-09T23:52:16.528Z,99623.84
2024-05-09T23:55:19.063Z,99625.56
2024-05-09T23:58:28.504Z,99620.94
